sensor_id;sensor_type;location;lat;lon;timestamp;P1;durP1;ratioP1;P2;durP2;ratioP2
70073;SDS011;57445;51.058;3.698;2023-03-12T00:00:53;10.52;;;4.18;;
70073;SDS011;57445;51.058;3.698;2023-03-12T00:03:25;12.85;;;4.47;;
70073;SDS011;57445;51.058;3.698;2023-03-12T00:05:53;11.32;;;4.55;;
70073;SDS011;57445;51.058;3.698;2023-03-12T00:08:22;13.88;;;4.63;;
70073;SDS011;57445;51.058;3.698;2023-03-12T00:10:49;14.27;;;4.60;;
70073;SDS011;57445;51.058;3.698;2023-03-12T00:13:17;10.27;;;4.93;;
70073;SDS011;57445;51.058;3.698;2023-03-12T00:15:50;9.05;;;4.50;;
70073;SDS011;57445;51.058;3.698;2023-03-12T00:18:22;11.52;;;4.40;;
70073;SDS011;57445;51.058;3.698;2023-03-12T00:20:56;15.90;;;5.13;;
70073;SDS011;57445;51.058;3.698;2023-03-12T00:23:28;10.32;;;4.45;;
70073;SDS011;57445;51.058;3.698;2023-03-12T00:26:02;12.93;;;4.15;;
70073;SDS011;57445;51.058;3.698;2023-03-12T00:28:31;10.23;;;4.32;;
70073;SDS011;57445;51.058;3.698;2023-03-12T00:31:12;7.80;;;4.25;;
70073;SDS011;57445;51.058;3.698;2023-03-12T00:33:41;9.60;;;4.17;;
70073;SDS011;57445;51.058;3.698;2023-03-12T00:36:14;11.80;;;3.90;;
70073;SDS011;57445;51.058;3.698;2023-03-12T00:38:43;9.13;;;4.03;;
70073;SDS011;57445;51.058;3.698;2023-03-12T00:41:11;10.82;;;3.65;;
70073;SDS011;57445;51.058;3.698;2023-03-12T00:43:44;7.97;;;3.88;;
70073;SDS011;57445;51.058;3.698;2023-03-12T00:46:12;9.20;;;3.55;;
70073;SDS011;57445;51.058;3.698;2023-03-12T00:48:44;7.85;;;4.10;;
70073;SDS011;57445;51.058;3.698;2023-03-12T00:51:18;10.02;;;4.38;;
70073;SDS011;57445;51.058;3.698;2023-03-12T00:53:46;9.20;;;3.88;;
70073;SDS011;57445;51.058;3.698;2023-03-12T00:56:13;8.77;;;4.20;;
70073;SDS011;57445;51.058;3.698;2023-03-12T00:58:46;8.70;;;3.95;;
70073;SDS011;57445;51.058;3.698;2023-03-12T01:01:18;9.32;;;3.80;;
70073;SDS011;57445;51.058;3.698;2023-03-12T01:03:51;9.90;;;4.20;;
70073;SDS011;57445;51.058;3.698;2023-03-12T01:06:21;9.00;;;4.22;;
70073;SDS011;57445;51.058;3.698;2023-03-12T01:08:49;10.52;;;4.40;;
70073;SDS011;57445;51.058;3.698;2023-03-12T01:11:21;10.32;;;4.88;;
70073;SDS011;57445;51.058;3.698;2023-03-12T01:13:54;14.73;;;4.20;;
70073;SDS011;57445;51.058;3.698;2023-03-12T01:16:21;7.97;;;3.75;;
70073;SDS011;57445;51.058;3.698;2023-03-12T01:18:52;10.07;;;4.15;;
70073;SDS011;57445;51.058;3.698;2023-03-12T01:21:27;10.43;;;4.32;;
70073;SDS011;57445;51.058;3.698;2023-03-12T01:23:55;8.20;;;3.83;;
70073;SDS011;57445;51.058;3.698;2023-03-12T01:26:23;6.50;;;3.67;;
70073;SDS011;57445;51.058;3.698;2023-03-12T01:28:55;8.32;;;3.45;;
70073;SDS011;57445;51.058;3.698;2023-03-12T01:31:23;9.15;;;3.85;;
70073;SDS011;57445;51.058;3.698;2023-03-12T01:33:56;10.32;;;4.32;;
70073;SDS011;57445;51.058;3.698;2023-03-12T01:36:29;11.07;;;4.20;;
70073;SDS011;57445;51.058;3.698;2023-03-12T01:39:02;11.55;;;3.95;;
70073;SDS011;57445;51.058;3.698;2023-03-12T01:41:30;6.85;;;3.80;;
70073;SDS011;57445;51.058;3.698;2023-03-12T01:43:59;9.13;;;4.35;;
70073;SDS011;57445;51.058;3.698;2023-03-12T01:46:32;8.80;;;4.00;;
70073;SDS011;57445;51.058;3.698;2023-03-12T01:49:02;9.98;;;3.83;;
70073;SDS011;57445;51.058;3.698;2023-03-12T01:51:40;7.95;;;4.32;;
70073;SDS011;57445;51.058;3.698;2023-03-12T01:54:12;10.32;;;4.00;;
70073;SDS011;57445;51.058;3.698;2023-03-12T01:56:48;11.30;;;4.32;;
70073;SDS011;57445;51.058;3.698;2023-03-12T01:59:17;12.02;;;4.18;;
70073;SDS011;57445;51.058;3.698;2023-03-12T02:01:48;8.13;;;3.80;;
70073;SDS011;57445;51.058;3.698;2023-03-12T02:04:20;11.57;;;4.20;;
70073;SDS011;57445;51.058;3.698;2023-03-12T02:06:59;9.73;;;4.82;;
70073;SDS011;57445;51.058;3.698;2023-03-12T02:09:35;12.15;;;4.50;;
70073;SDS011;57445;51.058;3.698;2023-03-12T02:12:07;10.90;;;4.65;;
70073;SDS011;57445;51.058;3.698;2023-03-12T02:14:35;9.18;;;4.35;;
70073;SDS011;57445;51.058;3.698;2023-03-12T02:17:06;13.55;;;5.07;;
70073;SDS011;57445;51.058;3.698;2023-03-12T02:19:36;11.98;;;4.90;;
70073;SDS011;57445;51.058;3.698;2023-03-12T02:22:10;11.00;;;4.57;;
70073;SDS011;57445;51.058;3.698;2023-03-12T02:24:45;13.25;;;4.68;;
70073;SDS011;57445;51.058;3.698;2023-03-12T02:27:21;9.48;;;4.53;;
70073;SDS011;57445;51.058;3.698;2023-03-12T02:29:49;12.55;;;4.47;;
70073;SDS011;57445;51.058;3.698;2023-03-12T02:32:23;11.48;;;4.05;;
70073;SDS011;57445;51.058;3.698;2023-03-12T02:34:58;13.60;;;4.73;;
70073;SDS011;57445;51.058;3.698;2023-03-12T02:37:28;8.73;;;4.22;;
70073;SDS011;57445;51.058;3.698;2023-03-12T02:39:58;12.45;;;4.53;;
70073;SDS011;57445;51.058;3.698;2023-03-12T02:42:36;8.90;;;4.28;;
70073;SDS011;57445;51.058;3.698;2023-03-12T02:45:09;12.55;;;4.35;;
70073;SDS011;57445;51.058;3.698;2023-03-12T02:47:41;8.50;;;4.22;;
70073;SDS011;57445;51.058;3.698;2023-03-12T02:50:13;8.50;;;4.07;;
70073;SDS011;57445;51.058;3.698;2023-03-12T02:52:45;7.43;;;4.32;;
70073;SDS011;57445;51.058;3.698;2023-03-12T02:55:18;10.95;;;4.57;;
70073;SDS011;57445;51.058;3.698;2023-03-12T02:57:51;10.50;;;4.57;;
70073;SDS011;57445;51.058;3.698;2023-03-12T03:00:24;10.77;;;4.22;;
70073;SDS011;57445;51.058;3.698;2023-03-12T03:02:57;11.07;;;4.72;;
70073;SDS011;57445;51.058;3.698;2023-03-12T03:05:29;11.50;;;3.85;;
70073;SDS011;57445;51.058;3.698;2023-03-12T03:07:56;10.15;;;4.22;;
70073;SDS011;57445;51.058;3.698;2023-03-12T03:10:29;9.60;;;3.90;;
70073;SDS011;57445;51.058;3.698;2023-03-12T03:13:02;11.07;;;4.05;;
70073;SDS011;57445;51.058;3.698;2023-03-12T03:15:34;11.43;;;4.32;;
70073;SDS011;57445;51.058;3.698;2023-03-12T03:18:08;7.85;;;4.22;;
70073;SDS011;57445;51.058;3.698;2023-03-12T03:20:35;8.73;;;3.78;;
70073;SDS011;57445;51.058;3.698;2023-03-12T03:23:03;9.85;;;4.22;;
70073;SDS011;57445;51.058;3.698;2023-03-12T03:25:31;9.68;;;4.40;;
70073;SDS011;57445;51.058;3.698;2023-03-12T03:28:05;8.68;;;4.00;;
70073;SDS011;57445;51.058;3.698;2023-03-12T03:30:37;9.35;;;4.07;;
70073;SDS011;57445;51.058;3.698;2023-03-12T03:33:05;10.65;;;4.70;;
70073;SDS011;57445;51.058;3.698;2023-03-12T03:35:33;10.88;;;4.40;;
70073;SDS011;57445;51.058;3.698;2023-03-12T03:38:01;10.70;;;4.65;;
70073;SDS011;57445;51.058;3.698;2023-03-12T03:40:33;9.95;;;4.45;;
70073;SDS011;57445;51.058;3.698;2023-03-12T03:43:01;10.43;;;4.65;;
70073;SDS011;57445;51.058;3.698;2023-03-12T03:45:35;10.20;;;4.60;;
70073;SDS011;57445;51.058;3.698;2023-03-12T03:48:03;13.82;;;5.72;;
70073;SDS011;57445;51.058;3.698;2023-03-12T03:50:36;10.63;;;4.80;;
70073;SDS011;57445;51.058;3.698;2023-03-12T03:53:04;10.70;;;4.47;;
70073;SDS011;57445;51.058;3.698;2023-03-12T03:55:37;9.48;;;4.85;;
70073;SDS011;57445;51.058;3.698;2023-03-12T03:58:05;12.85;;;5.22;;
70073;SDS011;57445;51.058;3.698;2023-03-12T04:00:39;8.38;;;4.70;;
70073;SDS011;57445;51.058;3.698;2023-03-12T04:03:09;11.85;;;5.18;;
70073;SDS011;57445;51.058;3.698;2023-03-12T04:05:42;10.90;;;5.78;;
70073;SDS011;57445;51.058;3.698;2023-03-12T04:08:10;11.85;;;5.40;;
70073;SDS011;57445;51.058;3.698;2023-03-12T04:10:43;13.45;;;5.40;;
70073;SDS011;57445;51.058;3.698;2023-03-12T04:13:10;11.65;;;5.70;;
70073;SDS011;57445;51.058;3.698;2023-03-12T04:15:45;10.90;;;6.15;;
70073;SDS011;57445;51.058;3.698;2023-03-12T04:18:13;13.18;;;6.60;;
70073;SDS011;57445;51.058;3.698;2023-03-12T04:20:41;11.98;;;6.05;;
70073;SDS011;57445;51.058;3.698;2023-03-12T04:23:09;15.57;;;6.32;;
70073;SDS011;57445;51.058;3.698;2023-03-12T04:25:42;16.60;;;7.20;;
70073;SDS011;57445;51.058;3.698;2023-03-12T04:28:14;10.50;;;6.85;;
70073;SDS011;57445;51.058;3.698;2023-03-12T04:30:42;13.75;;;7.20;;
70073;SDS011;57445;51.058;3.698;2023-03-12T04:33:15;12.63;;;7.07;;
70073;SDS011;57445;51.058;3.698;2023-03-12T04:35:51;17.13;;;8.10;;
70073;SDS011;57445;51.058;3.698;2023-03-12T04:38:19;16.50;;;8.68;;
70073;SDS011;57445;51.058;3.698;2023-03-12T04:40:55;15.30;;;8.88;;
70073;SDS011;57445;51.058;3.698;2023-03-12T04:43:24;16.40;;;8.45;;
70073;SDS011;57445;51.058;3.698;2023-03-12T04:45:56;16.27;;;8.73;;
70073;SDS011;57445;51.058;3.698;2023-03-12T04:48:26;17.67;;;8.63;;
70073;SDS011;57445;51.058;3.698;2023-03-12T04:50:53;14.65;;;9.02;;
70073;SDS011;57445;51.058;3.698;2023-03-12T04:53:21;15.75;;;9.10;;
70073;SDS011;57445;51.058;3.698;2023-03-12T04:55:54;16.38;;;9.80;;
70073;SDS011;57445;51.058;3.698;2023-03-12T04:58:26;16.05;;;9.27;;
70073;SDS011;57445;51.058;3.698;2023-03-12T05:00:54;17.73;;;10.25;;
70073;SDS011;57445;51.058;3.698;2023-03-12T05:03:27;16.45;;;11.10;;
70073;SDS011;57445;51.058;3.698;2023-03-12T05:05:56;20.17;;;11.52;;
70073;SDS011;57445;51.058;3.698;2023-03-12T05:08:24;21.65;;;12.68;;
70073;SDS011;57445;51.058;3.698;2023-03-12T05:10:52;21.88;;;13.43;;
70073;SDS011;57445;51.058;3.698;2023-03-12T05:13:25;22.33;;;12.15;;
70073;SDS011;57445;51.058;3.698;2023-03-12T05:15:57;21.08;;;12.05;;
70073;SDS011;57445;51.058;3.698;2023-03-12T05:18:34;21.27;;;13.23;;
70073;SDS011;57445;51.058;3.698;2023-03-12T05:21:07;25.20;;;13.70;;
70073;SDS011;57445;51.058;3.698;2023-03-12T05:23:37;23.52;;;13.93;;
70073;SDS011;57445;51.058;3.698;2023-03-12T05:26:15;24.88;;;14.82;;
70073;SDS011;57445;51.058;3.698;2023-03-12T05:28:44;26.17;;;15.60;;
70073;SDS011;57445;51.058;3.698;2023-03-12T05:31:13;24.77;;;14.88;;
70073;SDS011;57445;51.058;3.698;2023-03-12T05:33:42;23.83;;;14.57;;
70073;SDS011;57445;51.058;3.698;2023-03-12T05:36:15;28.95;;;16.85;;
70073;SDS011;57445;51.058;3.698;2023-03-12T05:38:42;26.67;;;15.57;;
70073;SDS011;57445;51.058;3.698;2023-03-12T05:41:15;27.90;;;16.92;;
70073;SDS011;57445;51.058;3.698;2023-03-12T05:43:48;30.40;;;16.42;;
70073;SDS011;57445;51.058;3.698;2023-03-12T05:46:18;28.75;;;16.48;;
70073;SDS011;57445;51.058;3.698;2023-03-12T05:48:47;32.38;;;16.42;;
70073;SDS011;57445;51.058;3.698;2023-03-12T05:51:19;31.23;;;17.20;;
70073;SDS011;57445;51.058;3.698;2023-03-12T05:53:48;32.47;;;17.05;;
70073;SDS011;57445;51.058;3.698;2023-03-12T05:56:20;27.73;;;16.67;;
70073;SDS011;57445;51.058;3.698;2023-03-12T05:58:52;30.38;;;16.05;;
70073;SDS011;57445;51.058;3.698;2023-03-12T06:01:20;30.13;;;16.35;;
70073;SDS011;57445;51.058;3.698;2023-03-12T06:03:51;25.88;;;16.08;;
70073;SDS011;57445;51.058;3.698;2023-03-12T06:06:24;29.70;;;16.13;;
70073;SDS011;57445;51.058;3.698;2023-03-12T06:08:52;31.40;;;17.60;;
70073;SDS011;57445;51.058;3.698;2023-03-12T06:11:20;29.15;;;16.88;;
70073;SDS011;57445;51.058;3.698;2023-03-12T06:13:52;32.50;;;17.40;;
70073;SDS011;57445;51.058;3.698;2023-03-12T06:16:25;26.45;;;16.15;;
70073;SDS011;57445;51.058;3.698;2023-03-12T06:19:00;32.13;;;17.40;;
70073;SDS011;57445;51.058;3.698;2023-03-12T06:21:30;31.77;;;17.23;;
70073;SDS011;57445;51.058;3.698;2023-03-12T06:24:03;32.03;;;17.65;;
70073;SDS011;57445;51.058;3.698;2023-03-12T06:26:36;31.40;;;17.38;;
70073;SDS011;57445;51.058;3.698;2023-03-12T06:29:03;32.35;;;18.20;;
70073;SDS011;57445;51.058;3.698;2023-03-12T06:31:31;30.85;;;16.92;;
70073;SDS011;57445;51.058;3.698;2023-03-12T06:34:05;35.92;;;17.83;;
70073;SDS011;57445;51.058;3.698;2023-03-12T06:36:37;31.83;;;17.25;;
70073;SDS011;57445;51.058;3.698;2023-03-12T06:39:04;34.45;;;17.15;;
70073;SDS011;57445;51.058;3.698;2023-03-12T06:41:38;32.33;;;17.20;;
70073;SDS011;57445;51.058;3.698;2023-03-12T06:44:11;33.08;;;18.75;;
70073;SDS011;57445;51.058;3.698;2023-03-12T06:46:38;34.72;;;17.05;;
70073;SDS011;57445;51.058;3.698;2023-03-12T06:49:14;37.63;;;19.33;;
70073;SDS011;57445;51.058;3.698;2023-03-12T06:51:47;40.63;;;20.38;;
70073;SDS011;57445;51.058;3.698;2023-03-12T06:54:19;38.42;;;19.60;;
70073;SDS011;57445;51.058;3.698;2023-03-12T06:56:46;33.40;;;19.02;;
70073;SDS011;57445;51.058;3.698;2023-03-12T06:59:14;38.72;;;19.38;;
70073;SDS011;57445;51.058;3.698;2023-03-12T07:01:47;43.63;;;18.23;;
70073;SDS011;57445;51.058;3.698;2023-03-12T07:04:17;35.83;;;17.92;;
70073;SDS011;57445;51.058;3.698;2023-03-12T07:06:44;31.63;;;17.30;;
70073;SDS011;57445;51.058;3.698;2023-03-12T07:09:15;46.83;;;18.60;;
70073;SDS011;57445;51.058;3.698;2023-03-12T07:11:43;44.25;;;18.27;;
70073;SDS011;57445;51.058;3.698;2023-03-12T07:14:15;44.20;;;18.60;;
70073;SDS011;57445;51.058;3.698;2023-03-12T07:16:49;49.15;;;19.30;;
70073;SDS011;57445;51.058;3.698;2023-03-12T07:19:18;43.85;;;17.08;;
70073;SDS011;57445;51.058;3.698;2023-03-12T07:21:48;48.55;;;17.40;;
70073;SDS011;57445;51.058;3.698;2023-03-12T07:24:20;44.72;;;17.15;;
70073;SDS011;57445;51.058;3.698;2023-03-12T07:26:53;40.53;;;15.13;;
70073;SDS011;57445;51.058;3.698;2023-03-12T07:29:21;39.35;;;15.50;;
70073;SDS011;57445;51.058;3.698;2023-03-12T07:31:53;45.58;;;16.73;;
70073;SDS011;57445;51.058;3.698;2023-03-12T07:34:27;46.67;;;15.43;;
70073;SDS011;57445;51.058;3.698;2023-03-12T07:36:59;35.85;;;13.07;;
70073;SDS011;57445;51.058;3.698;2023-03-12T07:39:31;43.50;;;13.25;;
70073;SDS011;57445;51.058;3.698;2023-03-12T07:42:03;36.22;;;12.43;;
70073;SDS011;57445;51.058;3.698;2023-03-12T07:44:31;36.97;;;11.98;;
70073;SDS011;57445;51.058;3.698;2023-03-12T07:47:06;32.40;;;10.50;;
70073;SDS011;57445;51.058;3.698;2023-03-12T07:49:35;30.38;;;10.57;;
70073;SDS011;57445;51.058;3.698;2023-03-12T07:52:03;39.75;;;10.88;;
70073;SDS011;57445;51.058;3.698;2023-03-12T07:54:34;36.72;;;9.82;;
70073;SDS011;57445;51.058;3.698;2023-03-12T07:57:06;39.65;;;9.55;;
70073;SDS011;57445;51.058;3.698;2023-03-12T07:59:34;32.35;;;9.57;;
70073;SDS011;57445;51.058;3.698;2023-03-12T08:02:02;40.63;;;9.07;;
70073;SDS011;57445;51.058;3.698;2023-03-12T08:04:30;34.38;;;8.65;;
70073;SDS011;57445;51.058;3.698;2023-03-12T08:07:04;30.20;;;8.63;;
70073;SDS011;57445;51.058;3.698;2023-03-12T08:09:31;35.58;;;8.35;;
70073;SDS011;57445;51.058;3.698;2023-03-12T08:12:04;31.98;;;8.35;;
70073;SDS011;57445;51.058;3.698;2023-03-12T08:14:33;31.85;;;7.95;;
70073;SDS011;57445;51.058;3.698;2023-03-12T08:17:05;34.55;;;8.00;;
70073;SDS011;57445;51.058;3.698;2023-03-12T08:19:38;32.80;;;7.88;;
70073;SDS011;57445;51.058;3.698;2023-03-12T08:22:13;39.30;;;8.25;;
70073;SDS011;57445;51.058;3.698;2023-03-12T08:24:45;39.35;;;7.50;;
70073;SDS011;57445;51.058;3.698;2023-03-12T08:27:13;28.75;;;6.57;;
70073;SDS011;57445;51.058;3.698;2023-03-12T08:29:40;30.77;;;6.78;;
70073;SDS011;57445;51.058;3.698;2023-03-12T08:32:08;41.28;;;6.68;;
70073;SDS011;57445;51.058;3.698;2023-03-12T08:34:36;34.10;;;6.45;;
70073;SDS011;57445;51.058;3.698;2023-03-12T08:37:04;27.92;;;6.70;;
70073;SDS011;57445;51.058;3.698;2023-03-12T08:39:34;36.47;;;6.70;;
70073;SDS011;57445;51.058;3.698;2023-03-12T08:42:07;28.98;;;6.40;;
70073;SDS011;57445;51.058;3.698;2023-03-12T08:44:39;31.48;;;6.75;;
70073;SDS011;57445;51.058;3.698;2023-03-12T08:47:07;42.05;;;6.75;;
70073;SDS011;57445;51.058;3.698;2023-03-12T08:49:34;30.75;;;6.18;;
70073;SDS011;57445;51.058;3.698;2023-03-12T08:52:03;29.45;;;6.82;;
70073;SDS011;57445;51.058;3.698;2023-03-12T08:54:37;41.95;;;7.82;;
70073;SDS011;57445;51.058;3.698;2023-03-12T08:57:05;34.70;;;6.82;;
70073;SDS011;57445;51.058;3.698;2023-03-12T08:59:32;31.23;;;6.85;;
70073;SDS011;57445;51.058;3.698;2023-03-12T09:02:01;31.55;;;6.63;;
70073;SDS011;57445;51.058;3.698;2023-03-12T09:04:29;36.00;;;7.03;;
70073;SDS011;57445;51.058;3.698;2023-03-12T09:07:02;33.30;;;7.00;;
70073;SDS011;57445;51.058;3.698;2023-03-12T09:09:36;38.30;;;7.50;;
70073;SDS011;57445;51.058;3.698;2023-03-12T09:12:08;31.67;;;6.47;;
70073;SDS011;57445;51.058;3.698;2023-03-12T09:14:36;33.47;;;6.53;;
70073;SDS011;57445;51.058;3.698;2023-03-12T09:17:04;38.33;;;6.40;;
70073;SDS011;57445;51.058;3.698;2023-03-12T09:19:36;29.83;;;6.18;;
70073;SDS011;57445;51.058;3.698;2023-03-12T09:22:10;36.67;;;7.13;;
70073;SDS011;57445;51.058;3.698;2023-03-12T09:24:39;38.38;;;6.93;;
70073;SDS011;57445;51.058;3.698;2023-03-12T09:27:11;39.88;;;7.28;;
70073;SDS011;57445;51.058;3.698;2023-03-12T09:29:43;40.63;;;6.80;;
70073;SDS011;57445;51.058;3.698;2023-03-12T09:32:16;32.85;;;6.65;;
70073;SDS011;57445;51.058;3.698;2023-03-12T09:34:48;32.00;;;7.90;;
70073;SDS011;57445;51.058;3.698;2023-03-12T09:37:16;35.60;;;7.32;;
70073;SDS011;57445;51.058;3.698;2023-03-12T09:39:49;40.33;;;7.18;;
70073;SDS011;57445;51.058;3.698;2023-03-12T09:42:21;36.08;;;7.45;;
70073;SDS011;57445;51.058;3.698;2023-03-12T09:44:51;38.67;;;6.75;;
70073;SDS011;57445;51.058;3.698;2023-03-12T09:47:24;31.73;;;6.20;;
70073;SDS011;57445;51.058;3.698;2023-03-12T09:52:31;36.03;;;7.22;;
70073;SDS011;57445;51.058;3.698;2023-03-12T09:55:10;35.40;;;7.18;;
70073;SDS011;57445;51.058;3.698;2023-03-12T09:57:40;34.08;;;6.93;;
70073;SDS011;57445;51.058;3.698;2023-03-12T10:00:14;34.78;;;6.90;;
70073;SDS011;57445;51.058;3.698;2023-03-12T10:02:53;37.78;;;7.18;;
70073;SDS011;57445;51.058;3.698;2023-03-12T10:05:44;33.55;;;6.50;;
70073;SDS011;57445;51.058;3.698;2023-03-12T10:08:19;33.60;;;6.82;;
70073;SDS011;57445;51.058;3.698;2023-03-12T10:11:00;31.92;;;7.03;;
70073;SDS011;57445;51.058;3.698;2023-03-12T10:16:32;32.17;;;6.28;;
70073;SDS011;57445;51.058;3.698;2023-03-12T10:19:12;36.90;;;6.95;;
70073;SDS011;57445;51.058;3.698;2023-03-12T10:21:50;32.63;;;6.15;;
70073;SDS011;57445;51.058;3.698;2023-03-12T10:24:29;31.00;;;6.68;;
70073;SDS011;57445;51.058;3.698;2023-03-12T10:27:08;31.00;;;6.05;;
70073;SDS011;57445;51.058;3.698;2023-03-12T10:29:45;30.02;;;6.80;;
70073;SDS011;57445;51.058;3.698;2023-03-12T10:32:15;25.33;;;5.63;;
70073;SDS011;57445;51.058;3.698;2023-03-12T10:37:22;30.92;;;6.13;;
70073;SDS011;57445;51.058;3.698;2023-03-12T10:39:52;29.15;;;6.40;;
70073;SDS011;57445;51.058;3.698;2023-03-12T10:42:23;37.42;;;7.07;;
70073;SDS011;57445;51.058;3.698;2023-03-12T10:44:53;26.55;;;5.88;;
70073;SDS011;57445;51.058;3.698;2023-03-12T10:47:32;27.65;;;6.30;;
70073;SDS011;57445;51.058;3.698;2023-03-12T10:50:12;30.20;;;6.10;;
70073;SDS011;57445;51.058;3.698;2023-03-12T10:52:47;28.65;;;6.35;;
70073;SDS011;57445;51.058;3.698;2023-03-12T10:55:20;27.02;;;6.32;;
70073;SDS011;57445;51.058;3.698;2023-03-12T10:57:57;34.65;;;6.50;;
70073;SDS011;57445;51.058;3.698;2023-03-12T11:00:29;27.70;;;5.90;;
70073;SDS011;57445;51.058;3.698;2023-03-12T11:03:03;27.48;;;5.88;;
70073;SDS011;57445;51.058;3.698;2023-03-12T11:05:33;27.65;;;5.45;;
70073;SDS011;57445;51.058;3.698;2023-03-12T11:08:02;26.02;;;6.00;;
70073;SDS011;57445;51.058;3.698;2023-03-12T11:10:45;25.77;;;5.53;;
70073;SDS011;57445;51.058;3.698;2023-03-12T11:13:22;29.15;;;6.07;;
70073;SDS011;57445;51.058;3.698;2023-03-12T11:15:52;24.10;;;5.07;;
70073;SDS011;57445;51.058;3.698;2023-03-12T11:18:27;30.33;;;5.18;;
70073;SDS011;57445;51.058;3.698;2023-03-12T11:21:11;28.88;;;5.35;;
70073;SDS011;57445;51.058;3.698;2023-03-12T11:24:03;29.42;;;5.10;;
70073;SDS011;57445;51.058;3.698;2023-03-12T11:26:41;31.73;;;5.88;;
70073;SDS011;57445;51.058;3.698;2023-03-12T11:29:23;28.58;;;5.97;;
70073;SDS011;57445;51.058;3.698;2023-03-12T11:31:56;27.80;;;5.72;;
70073;SDS011;57445;51.058;3.698;2023-03-12T11:34:33;27.45;;;5.70;;
70073;SDS011;57445;51.058;3.698;2023-03-12T11:37:07;33.72;;;6.20;;
70073;SDS011;57445;51.058;3.698;2023-03-12T11:39:44;27.35;;;6.25;;
70073;SDS011;57445;51.058;3.698;2023-03-12T11:42:31;32.25;;;7.00;;
70073;SDS011;57445;51.058;3.698;2023-03-12T11:45:19;31.00;;;6.20;;
70073;SDS011;57445;51.058;3.698;2023-03-12T11:47:58;24.05;;;5.72;;
70073;SDS011;57445;51.058;3.698;2023-03-12T11:50:46;28.20;;;5.23;;
70073;SDS011;57445;51.058;3.698;2023-03-12T11:53:23;24.20;;;5.20;;
70073;SDS011;57445;51.058;3.698;2023-03-12T11:56:01;22.27;;;5.25;;
70073;SDS011;57445;51.058;3.698;2023-03-12T11:58:41;26.45;;;5.22;;
70073;SDS011;57445;51.058;3.698;2023-03-12T12:01:22;27.70;;;5.55;;
70073;SDS011;57445;51.058;3.698;2023-03-12T12:04:03;25.85;;;5.88;;
70073;SDS011;57445;51.058;3.698;2023-03-12T12:06:56;25.20;;;5.88;;
70073;SDS011;57445;51.058;3.698;2023-03-12T12:09:32;30.37;;;5.40;;
70073;SDS011;57445;51.058;3.698;2023-03-12T12:12:18;29.92;;;6.07;;
70073;SDS011;57445;51.058;3.698;2023-03-12T12:15:00;29.70;;;6.00;;
70073;SDS011;57445;51.058;3.698;2023-03-12T12:17:43;23.98;;;4.75;;
70073;SDS011;57445;51.058;3.698;2023-03-12T12:20:20;25.90;;;5.45;;
70073;SDS011;57445;51.058;3.698;2023-03-12T12:22:58;25.95;;;4.78;;
70073;SDS011;57445;51.058;3.698;2023-03-12T12:25:37;24.33;;;4.80;;
70073;SDS011;57445;51.058;3.698;2023-03-12T12:33:48;23.52;;;4.35;;
70073;SDS011;57445;51.058;3.698;2023-03-12T12:36:33;22.33;;;4.78;;
70073;SDS011;57445;51.058;3.698;2023-03-12T12:39:08;24.33;;;4.55;;
70073;SDS011;57445;51.058;3.698;2023-03-12T12:41:46;19.92;;;4.40;;
70073;SDS011;57445;51.058;3.698;2023-03-12T12:44:22;24.83;;;5.18;;
70073;SDS011;57445;51.058;3.698;2023-03-12T12:47:01;26.08;;;4.65;;
70073;SDS011;57445;51.058;3.698;2023-03-12T12:49:39;19.17;;;4.32;;
70073;SDS011;57445;51.058;3.698;2023-03-12T12:52:11;22.13;;;4.63;;
70073;SDS011;57445;51.058;3.698;2023-03-12T12:54:45;24.95;;;4.78;;
70073;SDS011;57445;51.058;3.698;2023-03-12T12:57:28;28.77;;;5.15;;
70073;SDS011;57445;51.058;3.698;2023-03-12T13:03:04;27.80;;;6.03;;
70073;SDS011;57445;51.058;3.698;2023-03-12T13:05:52;25.63;;;4.95;;
70073;SDS011;57445;51.058;3.698;2023-03-12T13:08:32;23.80;;;5.28;;
70073;SDS011;57445;51.058;3.698;2023-03-12T13:11:03;23.45;;;5.15;;
70073;SDS011;57445;51.058;3.698;2023-03-12T13:13:37;24.85;;;4.43;;
70073;SDS011;57445;51.058;3.698;2023-03-12T13:16:16;24.20;;;5.53;;
70073;SDS011;57445;51.058;3.698;2023-03-12T13:18:55;24.25;;;5.13;;
70073;SDS011;57445;51.058;3.698;2023-03-12T13:21:32;24.90;;;5.10;;
70073;SDS011;57445;51.058;3.698;2023-03-12T13:24:15;21.67;;;4.78;;
70073;SDS011;57445;51.058;3.698;2023-03-12T13:26:54;24.38;;;5.15;;
70073;SDS011;57445;51.058;3.698;2023-03-12T13:29:36;19.50;;;3.90;;
70073;SDS011;57445;51.058;3.698;2023-03-12T13:35:05;26.75;;;5.47;;
70073;SDS011;57445;51.058;3.698;2023-03-12T13:38:02;23.33;;;5.10;;
70073;SDS011;57445;51.058;3.698;2023-03-12T13:46:40;29.05;;;4.45;;
70073;SDS011;57445;51.058;3.698;2023-03-12T13:49:14;22.45;;;4.72;;
70073;SDS011;57445;51.058;3.698;2023-03-12T13:51:57;27.15;;;5.35;;
70073;SDS011;57445;51.058;3.698;2023-03-12T13:54:32;32.70;;;5.20;;
70073;SDS011;57445;51.058;3.698;2023-03-12T13:57:02;22.45;;;5.45;;
70073;SDS011;57445;51.058;3.698;2023-03-12T13:59:43;23.02;;;5.20;;
70073;SDS011;57445;51.058;3.698;2023-03-12T14:02:15;30.02;;;6.32;;
70073;SDS011;57445;51.058;3.698;2023-03-12T14:04:49;29.05;;;5.10;;
70073;SDS011;57445;51.058;3.698;2023-03-12T14:10:33;24.60;;;4.72;;
70073;SDS011;57445;51.058;3.698;2023-03-12T14:13:17;25.27;;;4.63;;
70073;SDS011;57445;51.058;3.698;2023-03-12T14:15:59;30.13;;;5.85;;
70073;SDS011;57445;51.058;3.698;2023-03-12T14:18:36;20.63;;;5.10;;
70073;SDS011;57445;51.058;3.698;2023-03-12T14:21:06;23.75;;;5.05;;
70073;SDS011;57445;51.058;3.698;2023-03-12T14:23:44;25.67;;;4.75;;
70073;SDS011;57445;51.058;3.698;2023-03-12T14:26:22;27.20;;;5.53;;
70073;SDS011;57445;51.058;3.698;2023-03-12T14:28:54;26.30;;;5.68;;
70073;SDS011;57445;51.058;3.698;2023-03-12T14:31:30;28.10;;;5.50;;
70073;SDS011;57445;51.058;3.698;2023-03-12T14:34:00;32.45;;;5.60;;
70073;SDS011;57445;51.058;3.698;2023-03-12T14:36:39;27.92;;;5.22;;
70073;SDS011;57445;51.058;3.698;2023-03-12T14:39:16;27.05;;;4.93;;
70073;SDS011;57445;51.058;3.698;2023-03-12T14:41:59;23.48;;;6.10;;
70073;SDS011;57445;51.058;3.698;2023-03-12T14:44:31;23.17;;;4.55;;
70073;SDS011;57445;51.058;3.698;2023-03-12T14:47:02;34.03;;;5.63;;
70073;SDS011;57445;51.058;3.698;2023-03-12T14:49:37;25.77;;;5.38;;
70073;SDS011;57445;51.058;3.698;2023-03-12T14:52:06;32.45;;;5.63;;
70073;SDS011;57445;51.058;3.698;2023-03-12T14:54:37;24.90;;;5.10;;
70073;SDS011;57445;51.058;3.698;2023-03-12T14:57:13;26.98;;;4.78;;
70073;SDS011;57445;51.058;3.698;2023-03-12T14:59:52;26.38;;;4.90;;
70073;SDS011;57445;51.058;3.698;2023-03-12T15:02:21;26.98;;;5.68;;
70073;SDS011;57445;51.058;3.698;2023-03-12T15:04:55;28.08;;;5.70;;
70073;SDS011;57445;51.058;3.698;2023-03-12T15:07:26;28.08;;;6.10;;
70073;SDS011;57445;51.058;3.698;2023-03-12T15:09:59;28.20;;;5.63;;
70073;SDS011;57445;51.058;3.698;2023-03-12T15:12:30;25.95;;;5.53;;
70073;SDS011;57445;51.058;3.698;2023-03-12T15:15:06;36.58;;;6.30;;
70073;SDS011;57445;51.058;3.698;2023-03-12T15:17:35;25.90;;;5.78;;
70073;SDS011;57445;51.058;3.698;2023-03-12T15:20:04;35.38;;;6.20;;
70073;SDS011;57445;51.058;3.698;2023-03-12T15:22:38;33.10;;;6.28;;
70073;SDS011;57445;51.058;3.698;2023-03-12T15:25:20;27.40;;;5.28;;
70073;SDS011;57445;51.058;3.698;2023-03-12T15:28:00;25.52;;;5.78;;
70073;SDS011;57445;51.058;3.698;2023-03-12T15:30:38;35.17;;;6.40;;
70073;SDS011;57445;51.058;3.698;2023-03-12T15:33:07;34.60;;;6.38;;
70073;SDS011;57445;51.058;3.698;2023-03-12T15:35:38;31.88;;;7.00;;